Terminal Aerodrome Forecast
Issued by NWS

Home | Current Version | Previous Version | Text Only | Print | Product List | Glossary On
Versions: 1 2 3 4 5 6 7 8 9 10 11 12 13 14 15 16 17 18 19 20 21 22 23 24 25 26 27
422
FTUS41 KBUF 262057 AAC
TAFIAG
TAF AMD
KIAG 262057Z 2621/2718 24014G22KT P6SM -SHRA OVC025
     FM262300 25010KT P6SM VCSH BKN040
     FM270100 26009KT P6SM SCT040
     FM271100 22008KT 6SM -SHRA OVC025
     FM271400 22014G22KT 6SM -SHRA OVC025=

USA.gov is the U.S. government's official web portal to all federal, state and local government web resources and services.